createdAt,value
2022-08-26T00:01:33.449Z,452.3
2022-08-26T00:03:17.150Z,447.9
2022-08-26T00:05:00.842Z,446.9
2022-08-26T00:06:44.557Z,446
2022-08-26T00:08:28.254Z,445.9
2022-08-26T00:10:11.944Z,447.7
2022-08-26T00:11:55.680Z,447.6
2022-08-26T00:13:39.387Z,448
2022-08-26T00:15:23.080Z,448.9
2022-08-26T00:17:06.801Z,450.1
2022-08-26T00:18:50.470Z,447.6
2022-08-26T00:20:34.176Z,445.5
2022-08-26T00:22:17.908Z,446.9
2022-08-26T00:24:01.590Z,442.4
2022-08-26T00:25:45.291Z,443.4
2022-08-26T00:27:29.012Z,446.4
2022-08-26T00:29:12.696Z,446
2022-08-26T00:30:56.405Z,448.4
2022-08-26T00:32:40.079Z,452.9
2022-08-26T00:34:23.804Z,451.5
2022-08-26T00:36:07.516Z,453.6
2022-08-26T00:37:51.202Z,453.5
2022-08-26T00:39:34.894Z,451
2022-08-26T00:41:18.609Z,454.2
2022-08-26T00:43:02.303Z,456.2
2022-08-26T00:44:46.017Z,455.2
2022-08-26T00:46:29.699Z,453.1
2022-08-26T00:48:13.414Z,454.4
2022-08-26T00:49:57.133Z,457.9
2022-08-26T00:51:40.829Z,458.8
2022-08-26T00:53:24.534Z,459.8
2022-08-26T00:55:08.242Z,459.5
2022-08-26T00:56:51.946Z,460.7
2022-08-26T00:58:35.645Z,459.5
2022-08-26T01:00:19.360Z,458.7
2022-08-26T01:02:03.066Z,456
2022-08-26T01:03:46.769Z,456.1
2022-08-26T01:05:30.459Z,455.5
2022-08-26T01:07:14.201Z,452.5
2022-08-26T01:08:57.863Z,451.9
2022-08-26T01:10:41.563Z,451.6
2022-08-26T01:12:25.273Z,451.2
2022-08-26T01:14:08.994Z,450.1
2022-08-26T01:15:52.668Z,449.1
2022-08-26T01:17:36.379Z,448.3
2022-08-26T01:19:20.074Z,447.4
2022-08-26T01:21:03.780Z,450.1
2022-08-26T01:22:47.481Z,452.7
2022-08-26T01:24:31.182Z,453.9
2022-08-26T01:26:14.913Z,455.2
2022-08-26T01:27:58.595Z,455.9
2022-08-26T01:29:42.296Z,456.3
2022-08-26T01:31:25.998Z,456.6
2022-08-26T01:33:09.684Z,456.8
2022-08-26T01:34:53.400Z,458.1
2022-08-26T01:36:37.093Z,460.4
2022-08-26T01:38:20.806Z,459.8
2022-08-26T01:40:04.516Z,457.1
2022-08-26T01:41:48.210Z,455.8
2022-08-26T01:43:31.902Z,456.3
2022-08-26T01:45:15.609Z,457.5
2022-08-26T01:46:59.319Z,458.8
2022-08-26T01:48:43.032Z,458.2
2022-08-26T01:50:26.734Z,456.1
2022-08-26T01:52:10.426Z,455.7
2022-08-26T01:53:54.126Z,453.4
2022-08-26T01:55:37.840Z,452.4
2022-08-26T01:57:21.547Z,450.8
2022-08-26T01:59:05.238Z,447.2
2022-08-26T02:00:48.935Z,445.3
2022-08-26T02:02:32.641Z,446.9
2022-08-26T02:04:16.341Z,447.3
2022-08-26T02:06:00.034Z,447.9
2022-08-26T02:07:43.748Z,450.3
2022-08-26T02:09:27.450Z,455
2022-08-26T02:11:11.178Z,455.3
2022-08-26T02:12:54.834Z,454.1
2022-08-26T02:14:38.538Z,456.5
2022-08-26T02:16:22.249Z,458.5
2022-08-26T02:18:05.957Z,458.3
2022-08-26T02:19:49.644Z,459.1
2022-08-26T02:21:33.349Z,462.9
2022-08-26T02:23:17.054Z,465.5
2022-08-26T02:25:00.808Z,465.6
2022-08-26T02:26:44.472Z,465.2
2022-08-26T02:28:28.169Z,463.5
2022-08-26T02:30:11.855Z,465.3
2022-08-26T02:31:55.567Z,466.3
2022-08-26T02:33:39.273Z,467.1
2022-08-26T02:35:22.976Z,468.4
2022-08-26T02:37:06.670Z,469.9
2022-08-26T02:38:50.369Z,472.7
2022-08-26T02:40:34.082Z,474.1
2022-08-26T02:42:17.780Z,473.5
2022-08-26T02:44:01.469Z,471.4
2022-08-26T02:45:45.184Z,471.8
2022-08-26T02:47:28.893Z,470.6
2022-08-26T02:49:12.582Z,468.9
2022-08-26T02:50:56.281Z,466.2
2022-08-26T02:52:40.004Z,463.5
2022-08-26T02:54:23.696Z,462.8
2022-08-26T02:56:07.399Z,461.1
2022-08-26T02:57:51.091Z,460.2
2022-08-26T02:59:34.810Z,457.9
2022-08-26T03:01:18.513Z,457.8
2022-08-26T03:03:02.220Z,459.5
2022-08-26T03:04:45.911Z,460.1
2022-08-26T03:06:29.621Z,462.3
2022-08-26T03:08:13.340Z,461.7
2022-08-26T03:09:57.024Z,465.4
2022-08-26T03:11:40.714Z,465.5
2022-08-26T03:13:24.422Z,464.8
2022-08-26T03:15:08.110Z,463.2
2022-08-26T03:16:51.839Z,461.8
2022-08-26T03:18:35.518Z,461.1
2022-08-26T03:20:19.212Z,459.7
2022-08-26T03:22:02.940Z,459.7
2022-08-26T03:23:46.636Z,458.9
2022-08-26T03:25:30.311Z,458.9
2022-08-26T03:28:57.739Z,459.5
2022-08-26T03:30:41.437Z,458
2022-08-26T03:32:25.127Z,455.6
2022-08-26T03:34:08.840Z,454.8
2022-08-26T03:35:52.541Z,457.4
2022-08-26T03:37:36.239Z,456.7
2022-08-26T03:39:19.941Z,455.8
2022-08-26T03:41:03.637Z,457.4
2022-08-26T03:42:47.344Z,456.7
2022-08-26T03:44:31.067Z,458.6
2022-08-26T03:46:14.768Z,461.6
2022-08-26T03:47:58.441Z,462.1
2022-08-26T03:49:42.151Z,461.3
2022-08-26T03:51:25.856Z,461.4
2022-08-26T03:53:09.559Z,463.4
2022-08-26T03:54:53.252Z,463.7
2022-08-26T03:56:36.956Z,463.9
2022-08-26T03:58:20.664Z,464.9
2022-08-26T04:00:04.358Z,464.4
2022-08-26T04:01:48.074Z,462.2
2022-08-26T04:03:31.770Z,463
2022-08-26T04:05:15.472Z,461.2
2022-08-26T04:06:59.184Z,458.6
2022-08-26T04:08:42.877Z,458.1
2022-08-26T04:10:26.591Z,459.2
2022-08-26T04:12:10.303Z,457.9
2022-08-26T04:13:53.989Z,455.4
2022-08-26T04:15:37.687Z,456.9
2022-08-26T04:17:21.372Z,458.2
2022-08-26T04:19:05.082Z,457.6
2022-08-26T04:20:48.778Z,456.5
2022-08-26T04:22:32.481Z,455.5
2022-08-26T04:24:16.186Z,453.8
2022-08-26T04:25:59.906Z,453.1
2022-08-26T04:27:43.589Z,452.6
2022-08-26T04:29:27.304Z,451.9
2022-08-26T04:31:11.018Z,455.2
2022-08-26T04:32:54.697Z,458.9
2022-08-26T04:34:38.392Z,457.7
2022-08-26T04:36:22.115Z,457.2
2022-08-26T04:38:05.808Z,456.1
2022-08-26T04:39:49.496Z,455.1
2022-08-26T04:41:33.204Z,455
2022-08-26T04:43:16.903Z,454.4
2022-08-26T04:45:00.614Z,454.9
2022-08-26T04:46:44.314Z,455.1
2022-08-26T04:48:28.018Z,455
2022-08-26T04:50:11.713Z,454.3
2022-08-26T04:51:55.423Z,454.6
2022-08-26T04:53:39.133Z,453.9
2022-08-26T04:55:22.819Z,453.8
2022-08-26T04:57:06.524Z,453.7
2022-08-26T04:58:50.231Z,452.6
2022-08-26T05:00:33.925Z,452.9
2022-08-26T05:02:17.623Z,450.5
2022-08-26T05:04:01.342Z,448.7
2022-08-26T05:05:45.042Z,450.2
2022-08-26T05:07:28.736Z,453.1
2022-08-26T05:09:12.433Z,452.8
2022-08-26T05:10:56.135Z,453
2022-08-26T05:12:39.834Z,454.5
2022-08-26T05:14:23.553Z,456.2
2022-08-26T05:16:07.248Z,457.1
2022-08-26T05:17:50.940Z,460.1
2022-08-26T05:19:34.645Z,463.9
2022-08-26T05:21:18.367Z,465
2022-08-26T05:23:02.047Z,466.3
2022-08-26T05:24:45.752Z,466.5
2022-08-26T05:26:29.463Z,461.9
2022-08-26T05:28:13.163Z,462
2022-08-26T05:29:56.860Z,459.5
2022-08-26T05:31:40.562Z,460.4
2022-08-26T05:33:24.251Z,459.9
2022-08-26T05:35:07.971Z,459.5
2022-08-26T05:36:51.658Z,459.6
2022-08-26T05:38:35.360Z,460.9
2022-08-26T05:40:19.073Z,463.7
2022-08-26T05:42:02.762Z,467.2
2022-08-26T05:43:46.467Z,467.6
2022-08-26T05:45:30.167Z,468.3
2022-08-26T05:47:14.122Z,467.6
2022-08-26T05:48:57.567Z,470.3
2022-08-26T05:50:41.277Z,470.9
2022-08-26T05:52:24.973Z,473.2
2022-08-26T05:54:08.669Z,473.7
2022-08-26T05:55:52.379Z,474.1
2022-08-26T05:57:36.083Z,482.4
2022-08-26T05:59:19.781Z,491.2
2022-08-26T06:01:03.495Z,496.9
2022-08-26T06:02:47.193Z,503.3
2022-08-26T06:04:30.895Z,511.3
2022-08-26T06:06:14.602Z,520.8
2022-08-26T06:07:58.314Z,524.3
2022-08-26T06:09:41.983Z,532.8
2022-08-26T06:11:25.700Z,545.4
2022-08-26T06:13:09.403Z,554.2
2022-08-26T06:14:53.095Z,557.2
2022-08-26T06:16:36.802Z,560.6
2022-08-26T06:18:20.499Z,564
2022-08-26T06:20:04.203Z,572.2
2022-08-26T06:21:47.913Z,577.5
2022-08-26T06:23:31.609Z,579
2022-08-26T06:25:15.313Z,581.6
2022-08-26T06:26:59.006Z,581
2022-08-26T06:28:42.717Z,578.4
2022-08-26T06:30:26.402Z,576.3
2022-08-26T06:32:10.143Z,572.9
2022-08-26T06:33:53.815Z,570.9
2022-08-26T06:35:37.505Z,566.2
2022-08-26T06:37:21.207Z,562.3
2022-08-26T06:39:04.907Z,561.2
2022-08-26T06:40:48.615Z,557.5
2022-08-26T06:42:32.309Z,555.9
2022-08-26T06:44:16.022Z,555.1
2022-08-26T06:45:59.714Z,554.5
2022-08-26T06:47:43.421Z,548.9
2022-08-26T06:49:27.135Z,547.1
2022-08-26T06:51:10.832Z,547.3
2022-08-26T06:52:54.519Z,548
2022-08-26T06:54:38.229Z,546.5
2022-08-26T06:56:21.948Z,543.4
2022-08-26T06:58:05.624Z,545.1
2022-08-26T06:59:49.343Z,542.9
2022-08-26T07:01:33.037Z,538.8
2022-08-26T07:03:16.752Z,537.8
2022-08-26T07:05:00.507Z,540.7
2022-08-26T07:06:44.145Z,540.9
2022-08-26T07:08:27.859Z,541.2
2022-08-26T07:10:11.552Z,544.5
2022-08-26T07:13:38.945Z,547.5
2022-08-26T07:15:22.689Z,549.2
2022-08-26T07:17:06.369Z,550
2022-08-26T07:18:50.062Z,551.4
2022-08-26T07:20:33.766Z,553.5
2022-08-26T07:22:17.469Z,554.3
2022-08-26T07:24:01.165Z,554.6
2022-08-26T07:25:44.878Z,558.3
2022-08-26T07:27:28.582Z,558.6
2022-08-26T07:29:12.277Z,557.8
2022-08-26T07:30:55.987Z,554.6
2022-08-26T07:32:39.679Z,550.5
2022-08-26T07:34:23.390Z,550.7
2022-08-26T07:36:07.091Z,551.8
2022-08-26T07:37:50.812Z,546.8
2022-08-26T07:39:34.493Z,547.5
2022-08-26T07:41:18.216Z,548
2022-08-26T07:43:01.913Z,546.2
2022-08-26T07:44:45.610Z,546.8
2022-08-26T07:46:29.315Z,546.7
2022-08-26T07:48:13.020Z,545.2
2022-08-26T07:49:56.727Z,546.2
2022-08-26T07:51:40.418Z,548.4
2022-08-26T07:53:24.125Z,548.4
2022-08-26T07:55:07.821Z,549.9
2022-08-26T07:56:51.538Z,551
2022-08-26T07:58:35.220Z,550.2
2022-08-26T08:00:18.945Z,548.6
2022-08-26T08:02:02.650Z,546.1
2022-08-26T08:03:46.344Z,546.1
2022-08-26T08:05:30.044Z,546.7
2022-08-26T08:07:13.739Z,544.2
2022-08-26T08:08:57.448Z,545.7
2022-08-26T08:10:41.144Z,544.1
2022-08-26T08:12:24.848Z,541.8
2022-08-26T08:14:08.541Z,538.5
2022-08-26T08:15:52.263Z,539.7
2022-08-26T08:17:35.972Z,537.8
2022-08-26T08:19:19.644Z,534.9
2022-08-26T08:21:03.375Z,533.2
2022-08-26T08:22:47.084Z,530.9
2022-08-26T08:24:30.776Z,526.4
2022-08-26T08:26:14.465Z,526.3
2022-08-26T08:27:58.173Z,527.6
2022-08-26T08:29:41.885Z,530.3
2022-08-26T08:31:25.588Z,529.7
2022-08-26T08:33:09.286Z,527.2
2022-08-26T08:34:52.991Z,526.3
2022-08-26T08:36:36.710Z,521.1
2022-08-26T08:38:20.393Z,517
2022-08-26T08:40:04.109Z,517.7
2022-08-26T08:41:47.793Z,516
2022-08-26T08:43:31.519Z,512.6
2022-08-26T08:45:15.209Z,511.7
2022-08-26T08:46:58.907Z,512.6
2022-08-26T08:48:42.611Z,513
2022-08-26T08:50:26.324Z,510.8
2022-08-26T08:52:10.038Z,505.1
2022-08-26T08:53:53.717Z,501.7
2022-08-26T08:55:37.430Z,498.3
2022-08-26T08:57:21.133Z,496.3
2022-08-26T08:59:04.852Z,494.5
2022-08-26T09:00:48.542Z,491.6
2022-08-26T09:02:32.266Z,490.8
2022-08-26T09:04:15.958Z,491.7
2022-08-26T09:05:59.638Z,489.8
2022-08-26T09:07:43.362Z,489
2022-08-26T09:09:27.064Z,487.5
2022-08-26T09:11:10.756Z,485
2022-08-26T09:12:54.456Z,483.7
2022-08-26T09:14:38.171Z,482
2022-08-26T09:16:21.877Z,477.4
2022-08-26T09:18:05.560Z,475.9
2022-08-26T09:19:49.256Z,474
2022-08-26T09:21:32.972Z,473.2
2022-08-26T09:23:16.679Z,471.9
2022-08-26T09:25:00.427Z,472.7
2022-08-26T09:26:44.096Z,473.9
2022-08-26T09:28:27.831Z,473.7
2022-08-26T09:30:11.486Z,472.4
2022-08-26T09:31:55.200Z,470.8
2022-08-26T09:33:38.901Z,469.4
2022-08-26T09:35:22.611Z,467.7
2022-08-26T09:37:06.294Z,466.9
2022-08-26T09:38:49.991Z,467.7
2022-08-26T09:40:33.708Z,466.4
2022-08-26T09:42:17.416Z,464.6
2022-08-26T09:44:01.106Z,459.7
2022-08-26T09:45:44.808Z,456.6
2022-08-26T09:47:28.530Z,456
2022-08-26T09:49:12.223Z,454.2
2022-08-26T09:50:55.960Z,455.9
2022-08-26T09:52:39.634Z,455.5
2022-08-26T09:54:23.335Z,457.4
2022-08-26T09:56:07.016Z,456.3
2022-08-26T09:57:50.718Z,455.9
2022-08-26T09:59:34.419Z,453.2
2022-08-26T10:01:18.137Z,451.7
2022-08-26T10:03:01.818Z,453.8
2022-08-26T10:04:45.521Z,452.3
2022-08-26T10:06:29.227Z,452.6
2022-08-26T10:08:12.931Z,450.7
2022-08-26T10:09:56.647Z,450.7
2022-08-26T10:11:40.339Z,453.5
2022-08-26T10:13:24.032Z,454.6
2022-08-26T10:15:07.733Z,456
2022-08-26T10:16:51.445Z,451.3
2022-08-26T10:18:35.147Z,450.7
2022-08-26T10:20:18.840Z,450.5
2022-08-26T10:22:02.540Z,446.9
2022-08-26T10:23:46.236Z,443.4
2022-08-26T10:25:29.945Z,441.3
2022-08-26T10:27:13.666Z,440.7
2022-08-26T10:28:57.330Z,445.1
2022-08-26T10:30:41.057Z,445.8
2022-08-26T10:32:24.737Z,443.7
2022-08-26T10:34:08.462Z,442.8
2022-08-26T10:35:52.155Z,444.5
2022-08-26T10:37:35.850Z,444.2
2022-08-26T10:39:19.569Z,442.4
2022-08-26T10:41:03.254Z,442
2022-08-26T10:42:46.961Z,443.3
2022-08-26T10:44:30.668Z,442
2022-08-26T10:46:14.381Z,437.6
2022-08-26T10:49:41.891Z,437.1
2022-08-26T10:51:25.474Z,438.2
2022-08-26T10:53:09.174Z,437.2
2022-08-26T10:54:52.866Z,436.3
2022-08-26T10:56:36.573Z,436.1
2022-08-26T10:58:20.273Z,435.2
2022-08-26T11:00:03.974Z,434.5
2022-08-26T11:01:47.669Z,438.8
2022-08-26T11:03:31.371Z,438.2
2022-08-26T11:05:15.087Z,437.9
2022-08-26T11:06:58.788Z,437.7
2022-08-26T11:08:42.473Z,437
2022-08-26T11:10:26.190Z,436.2
2022-08-26T11:12:09.900Z,436.7
2022-08-26T11:13:53.582Z,437
2022-08-26T11:15:37.276Z,434.4
2022-08-26T11:19:04.696Z,433.9
2022-08-26T11:20:48.386Z,434.2
2022-08-26T11:22:32.100Z,434.8
2022-08-26T11:24:15.803Z,435.5
2022-08-26T11:25:59.501Z,434.7
2022-08-26T11:27:43.187Z,433
2022-08-26T11:29:26.898Z,435.7
2022-08-26T11:31:10.596Z,432
2022-08-26T11:32:54.312Z,432.7
2022-08-26T11:34:37.987Z,430.1
2022-08-26T11:36:21.710Z,429.4
2022-08-26T11:38:05.409Z,429
2022-08-26T11:39:49.131Z,427.4
2022-08-26T11:41:32.799Z,427.2
2022-08-26T11:43:16.506Z,426.6
2022-08-26T11:45:00.460Z,426.3
2022-08-26T11:46:43.906Z,425.9
2022-08-26T11:48:27.614Z,426.8
2022-08-26T11:50:11.314Z,428.2
2022-08-26T11:51:55.034Z,427.7
2022-08-26T11:53:38.734Z,427.7
2022-08-26T11:55:22.421Z,427.2
2022-08-26T11:57:06.123Z,425.5
2022-08-26T11:58:49.817Z,423.9
2022-08-26T12:00:33.517Z,423.4
2022-08-26T12:02:17.241Z,426.4
2022-08-26T12:04:00.939Z,427.4
2022-08-26T12:05:44.633Z,428.1
2022-08-26T12:07:28.324Z,429.9
2022-08-26T12:09:12.041Z,428
2022-08-26T12:10:55.733Z,427.3
2022-08-26T12:12:39.433Z,429.5
2022-08-26T12:14:23.119Z,428.9
2022-08-26T12:16:06.841Z,426.4
2022-08-26T12:17:50.533Z,424.3
2022-08-26T12:19:34.297Z,422.5
2022-08-26T12:21:17.954Z,422.7
2022-08-26T12:23:01.646Z,423.7
2022-08-26T12:24:45.337Z,423.4
2022-08-26T12:26:29.038Z,418.5
2022-08-26T12:28:12.751Z,416.3
2022-08-26T12:29:56.463Z,419.3
2022-08-26T12:31:40.156Z,421.2
2022-08-26T12:33:23.845Z,424.1
2022-08-26T12:35:07.542Z,426.1
2022-08-26T12:36:51.266Z,423.8
2022-08-26T12:38:34.960Z,422.9
2022-08-26T12:40:18.641Z,421.7
2022-08-26T12:42:02.347Z,419.1
2022-08-26T12:43:46.047Z,417.5
2022-08-26T12:45:29.757Z,419.6
2022-08-26T12:47:13.454Z,419.5
2022-08-26T12:48:57.153Z,422.4
2022-08-26T12:50:40.863Z,423.2
2022-08-26T12:52:24.548Z,423.4
2022-08-26T12:54:08.260Z,421.7
2022-08-26T12:55:51.971Z,421.4
2022-08-26T12:57:35.668Z,421.5
2022-08-26T12:59:19.374Z,421.9
2022-08-26T13:01:03.064Z,419
2022-08-26T13:02:46.775Z,418.3
2022-08-26T13:04:30.489Z,418.6
2022-08-26T13:06:14.162Z,420.4
2022-08-26T13:07:57.865Z,421.9
2022-08-26T13:09:41.571Z,422.7
2022-08-26T13:11:25.289Z,422.9
2022-08-26T13:13:08.984Z,422.8
2022-08-26T13:14:52.678Z,421.6
2022-08-26T13:16:36.382Z,424.1
2022-08-26T13:18:20.082Z,424.4
2022-08-26T13:20:03.773Z,422.8
2022-08-26T13:21:47.477Z,421.9
2022-08-26T13:23:31.187Z,423.1
2022-08-26T13:25:14.888Z,418.1
2022-08-26T13:26:58.571Z,416.6
2022-08-26T13:28:42.286Z,414.9
2022-08-26T13:30:25.982Z,413.9
2022-08-26T13:32:09.688Z,414.8
2022-08-26T13:33:53.392Z,414.9
2022-08-26T13:35:37.099Z,414.6
2022-08-26T13:37:20.806Z,415.5
2022-08-26T13:39:04.491Z,415.8
2022-08-26T13:40:48.199Z,416.2
2022-08-26T13:42:31.906Z,417.6
2022-08-26T13:44:15.611Z,416.7
2022-08-26T13:45:59.314Z,418.4
2022-08-26T13:47:43.031Z,416.7
2022-08-26T13:49:26.714Z,416.8
2022-08-26T13:51:10.419Z,415
2022-08-26T13:52:54.120Z,413.8
2022-08-26T13:54:37.815Z,416.9
2022-08-26T13:56:21.520Z,415.5
2022-08-26T13:58:05.235Z,415
2022-08-26T13:59:48.913Z,413.8
2022-08-26T14:01:32.630Z,415.3
2022-08-26T14:03:16.312Z,416.6
2022-08-26T14:05:00.038Z,412.7
2022-08-26T14:06:43.724Z,410.6
2022-08-26T14:08:27.420Z,412.4
2022-08-26T14:10:11.121Z,413.3
2022-08-26T14:11:54.831Z,412.9
2022-08-26T14:13:38.535Z,413.8
2022-08-26T14:15:22.236Z,415.9
2022-08-26T14:17:05.952Z,415.8
2022-08-26T14:18:49.628Z,413.2
2022-08-26T14:20:33.334Z,413.8
2022-08-26T14:22:17.047Z,414.1
2022-08-26T14:24:00.737Z,414.3
2022-08-26T14:25:44.448Z,414.4
2022-08-26T14:27:28.149Z,417.4
2022-08-26T14:29:11.846Z,417.6
2022-08-26T14:30:55.558Z,416.9
2022-08-26T14:32:39.251Z,414.7
2022-08-26T14:34:22.970Z,413.4
2022-08-26T14:36:06.647Z,415.4
2022-08-26T14:37:50.356Z,415.9
2022-08-26T14:39:34.046Z,414
2022-08-26T14:43:01.495Z,413.6
2022-08-26T14:44:45.157Z,414.4
2022-08-26T14:46:28.851Z,413.7
2022-08-26T14:48:12.614Z,412.3
2022-08-26T14:49:56.275Z,413
2022-08-26T14:51:39.964Z,411.4
2022-08-26T14:53:23.666Z,411.3
2022-08-26T14:55:07.363Z,411.7
2022-08-26T14:56:51.092Z,411.4
2022-08-26T15:00:18.476Z,411.7
2022-08-26T15:02:02.192Z,407.5
2022-08-26T15:03:45.884Z,409.9
2022-08-26T15:05:29.576Z,412.5
2022-08-26T15:07:13.287Z,410.4
2022-08-26T15:08:56.982Z,410
2022-08-26T15:10:40.688Z,408.6
2022-08-26T15:12:24.392Z,409.4
2022-08-26T15:14:08.099Z,409
2022-08-26T15:15:51.803Z,407.1
2022-08-26T15:17:35.490Z,408.3
2022-08-26T15:19:19.213Z,409.7
2022-08-26T15:21:02.902Z,411.9
2022-08-26T15:22:46.614Z,412.2
2022-08-26T15:24:30.300Z,413.9
2022-08-26T15:26:13.998Z,417
2022-08-26T15:27:57.701Z,417.8
2022-08-26T15:29:41.405Z,419.2
2022-08-26T15:31:25.108Z,419.1
2022-08-26T15:33:08.811Z,416.1
2022-08-26T15:34:52.527Z,415.3
2022-08-26T15:36:36.218Z,416.2
2022-08-26T15:38:19.910Z,417.3
2022-08-26T15:40:03.607Z,418.1
2022-08-26T15:41:47.308Z,421.2
2022-08-26T15:43:31.017Z,422.2
2022-08-26T15:45:14.707Z,420.8
2022-08-26T15:46:58.418Z,421.8
2022-08-26T15:48:42.127Z,421.6
2022-08-26T15:50:25.839Z,420.3
2022-08-26T15:52:09.544Z,420.5
2022-08-26T15:53:53.238Z,420.2
2022-08-26T15:55:36.944Z,419.7
2022-08-26T15:57:20.641Z,421.3
2022-08-26T15:59:04.350Z,422
2022-08-26T16:00:48.045Z,421.7
2022-08-26T16:02:31.753Z,419.7
2022-08-26T16:04:15.432Z,419
2022-08-26T16:05:59.144Z,418.5
2022-08-26T16:07:42.837Z,421.3
2022-08-26T16:09:26.555Z,423.6
2022-08-26T16:11:10.259Z,423.5
2022-08-26T16:12:53.953Z,423.2
2022-08-26T16:14:37.652Z,424.3
2022-08-26T16:16:21.372Z,424.4
2022-08-26T16:18:05.071Z,424.3
2022-08-26T16:19:48.767Z,420.1
2022-08-26T16:21:32.472Z,419.1
2022-08-26T16:23:16.173Z,418.3
2022-08-26T16:24:59.876Z,419.1
2022-08-26T16:26:43.582Z,420.7
2022-08-26T16:28:27.283Z,422.1
2022-08-26T16:30:10.976Z,420.2
2022-08-26T16:31:54.688Z,418.9
2022-08-26T16:33:38.385Z,418.9
2022-08-26T16:35:22.107Z,418.2
2022-08-26T16:37:05.784Z,418.5
2022-08-26T16:38:49.499Z,416.7
2022-08-26T16:40:33.194Z,414.8
2022-08-26T16:42:16.917Z,413.9
2022-08-26T16:44:00.596Z,413.8
2022-08-26T16:45:44.299Z,415.9
2022-08-26T16:47:27.993Z,417.3
2022-08-26T16:49:11.712Z,418
2022-08-26T16:50:55.415Z,417.2
2022-08-26T16:52:39.105Z,413.8
2022-08-26T16:54:22.842Z,413.3
2022-08-26T16:56:06.516Z,413
2022-08-26T16:57:50.214Z,414.7
2022-08-26T16:59:33.925Z,417.6
2022-08-26T17:01:17.630Z,421.8
2022-08-26T17:03:01.314Z,424.7
2022-08-26T17:04:45.035Z,427.5
2022-08-26T17:06:28.737Z,429.6
2022-08-26T17:08:12.432Z,434.2
2022-08-26T17:09:56.128Z,439.4
2022-08-26T17:11:39.836Z,460.4
2022-08-26T17:13:23.524Z,473.3
2022-08-26T17:15:07.247Z,473
2022-08-26T17:16:50.943Z,471.5
2022-08-26T17:18:34.638Z,475.2
2022-08-26T17:20:18.361Z,481.9
2022-08-26T17:22:02.041Z,489.6
2022-08-26T17:23:45.765Z,487.7
2022-08-26T17:25:29.456Z,487.3
2022-08-26T17:27:13.157Z,484.8
2022-08-26T17:28:56.865Z,482.5
2022-08-26T17:30:40.559Z,484.2
2022-08-26T17:32:24.265Z,489.8
2022-08-26T17:34:07.975Z,493.4
2022-08-26T17:35:51.670Z,496.1
2022-08-26T17:37:35.367Z,496.7
2022-08-26T17:39:19.063Z,495.8
2022-08-26T17:41:02.794Z,496.9
2022-08-26T17:42:46.478Z,496.5
2022-08-26T17:44:30.170Z,495.4
2022-08-26T17:46:13.891Z,493.9
2022-08-26T17:47:57.595Z,492.8
2022-08-26T17:49:41.284Z,493.4
2022-08-26T17:51:24.975Z,492.3
2022-08-26T17:53:08.686Z,491.2
2022-08-26T17:54:52.393Z,486.5
2022-08-26T17:56:36.100Z,484.3
2022-08-26T17:58:19.789Z,485.8
2022-08-26T18:00:03.514Z,484.2
2022-08-26T18:01:47.206Z,480.1
2022-08-26T18:03:30.926Z,480
2022-08-26T18:05:14.611Z,480.5
2022-08-26T18:06:58.330Z,479.2
2022-08-26T18:08:42.025Z,482.7
2022-08-26T18:10:25.713Z,483.7
2022-08-26T18:12:09.446Z,481.8
2022-08-26T18:13:53.137Z,483.6
2022-08-26T18:15:36.827Z,485.8
2022-08-26T18:17:20.519Z,490.5
2022-08-26T18:19:04.235Z,491.4
2022-08-26T18:20:47.962Z,489.6
2022-08-26T18:22:31.651Z,490.7
2022-08-26T18:24:15.339Z,494.9
2022-08-26T18:25:59.057Z,498.6
2022-08-26T18:27:42.759Z,506.1
2022-08-26T18:29:26.457Z,512.1
2022-08-26T18:31:10.170Z,517.5
2022-08-26T18:32:53.874Z,520.6
2022-08-26T18:34:37.569Z,528.3
2022-08-26T18:36:21.261Z,534.5
2022-08-26T18:38:04.964Z,537.2
2022-08-26T18:39:48.691Z,538.7
2022-08-26T18:41:32.375Z,540.4
2022-08-26T18:43:16.092Z,542.9
2022-08-26T18:44:59.779Z,545.6
2022-08-26T18:46:43.484Z,546.4
2022-08-26T18:48:27.207Z,547.7
2022-08-26T18:50:10.895Z,549.2
2022-08-26T18:51:54.602Z,554.7
2022-08-26T18:53:38.297Z,559.4
2022-08-26T18:55:22.012Z,563.6
2022-08-26T18:57:05.711Z,568.7
2022-08-26T18:58:49.412Z,569.1
2022-08-26T19:00:33.113Z,570.3
2022-08-26T19:02:16.811Z,576.3
2022-08-26T19:04:00.526Z,581.5
2022-08-26T19:05:44.230Z,581.9
2022-08-26T19:07:27.946Z,580.2
2022-08-26T19:09:11.643Z,579.2
2022-08-26T19:10:55.346Z,578.9
2022-08-26T19:12:39.065Z,579.2
2022-08-26T19:14:22.734Z,578.4
2022-08-26T19:16:06.430Z,576.2
2022-08-26T19:17:50.143Z,575
2022-08-26T19:19:33.828Z,572.6
2022-08-26T19:21:17.556Z,568.1
2022-08-26T19:23:01.240Z,560.6
2022-08-26T19:24:44.962Z,554.9
2022-08-26T19:26:28.655Z,552.3
2022-08-26T19:28:12.351Z,552.5
2022-08-26T19:29:56.073Z,553.4
2022-08-26T19:31:39.774Z,552.8
2022-08-26T19:33:23.458Z,547.2
2022-08-26T19:35:07.169Z,544.4
2022-08-26T19:36:50.875Z,542.1
2022-08-26T19:38:34.570Z,539.8
2022-08-26T19:40:18.265Z,536.4
2022-08-26T19:42:01.973Z,534.6
2022-08-26T19:43:45.688Z,533.7
2022-08-26T19:45:29.372Z,531.8
2022-08-26T19:47:13.087Z,528
2022-08-26T19:48:56.771Z,526.2
2022-08-26T19:50:40.489Z,524.6
2022-08-26T19:52:24.194Z,520.5
2022-08-26T19:54:19.655Z,519.5
2022-08-26T19:55:51.588Z,519.6
2022-08-26T19:57:35.298Z,516.5
2022-08-26T19:59:18.981Z,517.1
2022-08-26T20:01:02.685Z,513.3
2022-08-26T20:02:46.376Z,511.9
2022-08-26T20:04:30.094Z,508.4
2022-08-26T20:06:13.778Z,505.4
2022-08-26T20:07:57.489Z,502.4
2022-08-26T20:09:41.188Z,504.1
2022-08-26T20:11:24.894Z,506.3
2022-08-26T20:13:08.596Z,508.6
2022-08-26T20:14:52.301Z,508
2022-08-26T20:16:36.004Z,508.3
2022-08-26T20:18:19.692Z,506
2022-08-26T20:20:03.404Z,506.6
2022-08-26T20:21:47.097Z,507
2022-08-26T20:23:30.814Z,502.4
2022-08-26T20:25:14.527Z,498.9
2022-08-26T20:26:58.213Z,496.7
2022-08-26T20:28:41.910Z,495.8
2022-08-26T20:30:25.594Z,493.4
2022-08-26T20:32:09.311Z,487.8
2022-08-26T20:33:53.014Z,483.4
2022-08-26T20:35:36.702Z,479.5
2022-08-26T20:37:20.416Z,473.8
2022-08-26T20:39:04.119Z,469
2022-08-26T20:40:47.813Z,464.9
2022-08-26T20:42:31.529Z,462.6
2022-08-26T20:44:15.237Z,462.3
2022-08-26T20:45:58.926Z,462.6
2022-08-26T20:47:42.618Z,460.1
2022-08-26T20:49:26.317Z,455.1
2022-08-26T20:51:10.023Z,452.5
2022-08-26T20:52:53.730Z,451.8
2022-08-26T20:54:37.422Z,449.3
2022-08-26T20:56:21.124Z,446.7
2022-08-26T20:58:04.841Z,448.1
2022-08-26T20:59:48.557Z,446.9
2022-08-26T21:01:32.248Z,445.5
2022-08-26T21:03:15.950Z,446.4
2022-08-26T21:04:59.652Z,447.4
2022-08-26T21:06:43.356Z,446.5
2022-08-26T21:08:27.038Z,445.1
2022-08-26T21:10:10.739Z,442.7
2022-08-26T21:11:54.453Z,442.2
2022-08-26T21:13:38.157Z,441
2022-08-26T21:15:21.851Z,437.5
2022-08-26T21:17:05.544Z,437.6
2022-08-26T21:18:49.244Z,437.4
2022-08-26T21:20:32.974Z,434.8
2022-08-26T21:22:16.652Z,434.3
2022-08-26T21:24:00.361Z,433.2
2022-08-26T21:25:44.060Z,430.1
2022-08-26T21:27:27.768Z,429
2022-08-26T21:29:11.470Z,431.3
2022-08-26T21:30:55.166Z,431.3
2022-08-26T21:32:38.887Z,428.8
2022-08-26T21:34:22.570Z,426.9
2022-08-26T21:36:06.262Z,426.5
2022-08-26T21:37:49.979Z,424
2022-08-26T21:39:33.672Z,424.3
2022-08-26T21:41:17.374Z,425.3
2022-08-26T21:43:01.078Z,424.6
2022-08-26T21:44:44.781Z,425
2022-08-26T21:46:28.467Z,426.1
2022-08-26T21:48:12.174Z,425.4
2022-08-26T21:49:55.863Z,425.4
2022-08-26T21:51:39.576Z,427.4
2022-08-26T21:53:23.284Z,423.7
2022-08-26T21:55:06.975Z,424.1
2022-08-26T21:56:50.662Z,424
2022-08-26T21:58:34.404Z,426.8
2022-08-26T22:00:18.100Z,428.5
2022-08-26T22:02:01.774Z,426.1
2022-08-26T22:03:45.521Z,425.5
2022-08-26T22:05:29.173Z,424.9
2022-08-26T22:07:12.875Z,424.7
2022-08-26T22:08:56.579Z,423.3
2022-08-26T22:10:40.263Z,423.7
2022-08-26T22:12:23.963Z,424.7
2022-08-26T22:14:07.665Z,425.4
2022-08-26T22:15:51.372Z,424.7
2022-08-26T22:17:35.066Z,425.4
2022-08-26T22:19:18.770Z,425.5
2022-08-26T22:21:02.471Z,425.9
2022-08-26T22:22:46.181Z,426.4
2022-08-26T22:24:29.874Z,423.9
2022-08-26T22:26:13.571Z,425.4
2022-08-26T22:27:57.278Z,423
2022-08-26T22:29:40.987Z,424.6
2022-08-26T22:31:24.675Z,426.9
2022-08-26T22:33:08.375Z,426